Time;durP1;ratioP1;P1;durP2;ratioP2;P2;SDS_P1;SDS_P2;PMS_P1;PMS_P2;Temp;Humidity;BMP_temperature;BMP_pressure;BME280_temperature;BME280_humidity;BME280_pressure;Samples;Min_cycle;Max_cycle;Signal;HPM_P1;HPM_P2
2023/10/11 00:01:28;;;;;;;;;;;17.60;73.70;;;;;;5018858;28;19978;-73
2023/10/11 00:03:58;;;;;;;;;;;17.50;73.60;;;;;;5022063;28;19974;-72
2023/10/11 00:06:26;;;;;;;;;;;17.50;73.50;;;;;;5028115;28;19966;-73
2023/10/11 00:08:52;;;;;;;;;;;17.50;73.60;;;;;;5022653;28;19994;-73
2023/10/11 00:11:24;;;;;;;;;;;17.50;73.60;;;;;;5027019;28;19966;-73
2023/10/11 00:13:53;;;;;;;;;;;17.50;73.70;;;;;;5025368;28;19996;-73
2023/10/11 00:16:21;;;;;;;;;;;17.50;73.70;;;;;;5024413;28;19983;-73
2023/10/11 00:18:49;;;;;;;;;;;17.40;73.60;;;;;;5022329;28;19966;-73
2023/10/11 00:21:17;;;;;;;;;;;17.40;73.70;;;;;;5024395;28;19958;-73
2023/10/11 00:23:45;;;;;;;;;;;17.40;73.70;;;;;;5023379;28;20007;-73
2023/10/11 00:26:14;;;;;;;;;;;17.30;73.80;;;;;;5025317;28;20690;-73
2023/10/11 00:28:41;;;;;;;;;;;17.40;74.00;;;;;;5025074;28;20006;-72
2023/10/11 00:31:16;;;;;;;;;;;17.30;73.90;;;;;;5026076;28;19974;-73
2023/10/11 00:33:43;;;;;;;;;;;17.30;73.90;;;;;;5022311;28;19979;-73
2023/10/11 00:36:10;;;;;;;;;;;17.30;74.00;;;;;;5023921;28;19974;-73
2023/10/11 00:38:47;;;;;;;;;;;17.30;74.00;;;;;;5023986;28;19958;-73
2023/10/11 00:41:17;;;;;;;;;;;17.20;74.00;;;;;;5022967;28;19961;-73
2023/10/11 00:43:46;;;;;;;;;;;17.20;74.00;;;;;;5028241;28;20594;-73
2023/10/11 00:46:13;;;;;;;;;;;17.20;73.90;;;;;;5021685;28;20028;-73
2023/10/11 00:48:51;;;;;;;;;;;17.20;74.00;;;;;;5024427;28;20070;-73
2023/10/11 00:51:18;;;;;;;;;;;17.20;74.10;;;;;;5023113;28;19969;-73
2023/10/11 00:53:47;;;;;;;;;;;17.20;74.20;;;;;;5028710;28;19978;-73
2023/10/11 00:56:14;;;;;;;;;;;17.10;74.10;;;;;;5024848;28;19997;-73
2023/10/11 00:58:40;;;;;;;;;;;17.10;74.20;;;;;;5026832;28;19963;-73
2023/10/11 01:01:08;;;;;;;;;;;17.10;74.20;;;;;;5024427;28;19981;-73
2023/10/11 01:03:35;;;;;;;;;;;17.10;74.20;;;;;;5029769;28;19979;-73
2023/10/11 01:06:03;;;;;;;;;;;17.00;74.20;;;;;;5025479;28;19966;-73
2023/10/11 01:08:38;;;;;;;;;;;17.00;74.20;;;;;;5030586;28;19973;-73
2023/10/11 01:11:08;;;;;;;;;;;17.00;74.30;;;;;;5024362;28;20077;-73
2023/10/11 01:13:38;;;;;;;;;;;17.00;74.30;;;;;;5032305;28;20066;-73
2023/10/11 01:16:05;;;;;;;;;;;16.90;74.30;;;;;;5026467;28;20083;-73
2023/10/11 01:18:32;;;;;;;;;;;17.00;74.40;;;;;;5027680;28;19971;-73
2023/10/11 01:21:01;;;;;;;;;;;16.90;74.40;;;;;;5029814;28;19977;-73
2023/10/11 01:23:28;;;;;;;;;;;16.90;74.40;;;;;;5030042;28;20092;-73
2023/10/11 01:25:55;;;;;;;;;;;16.90;74.40;;;;;;5025350;28;20005;-73
2023/10/11 01:28:22;;;;;;;;;;;16.90;74.40;;;;;;5029162;28;19958;-73
2023/10/11 01:30:51;;;;;;;;;;;16.90;74.50;;;;;;5030809;28;19985;-73
2023/10/11 01:33:18;;;;;;;;;;;16.90;75.30;;;;;;5023633;28;19986;-73
2023/10/11 01:35:46;;;;;;;;;;;16.80;74.40;;;;;;5030586;28;19970;-73
2023/10/11 01:38:17;;;;;;;;;;;16.80;74.40;;;;;;5025910;28;19958;-73
2023/10/11 01:40:43;;;;;;;;;;;16.80;74.50;;;;;;5027683;28;20617;-73
2023/10/11 01:43:10;;;;;;;;;;;16.70;74.50;;;;;;5018741;28;19970;-73
2023/10/11 01:45:39;;;;;;;;;;;16.80;74.60;;;;;;5017538;28;19975;-73
2023/10/11 01:48:06;;;;;;;;;;;16.70;74.70;;;;;;5019159;28;19965;-73
2023/10/11 01:50:33;;;;;;;;;;;16.70;74.70;;;;;;5021982;28;20448;-73
2023/10/11 01:53:03;;;;;;;;;;;16.70;74.70;;;;;;5022837;28;20338;-73
2023/10/11 01:55:31;;;;;;;;;;;16.70;74.70;;;;;;5026342;28;19964;-73
2023/10/11 01:57:57;;;;;;;;;;;16.70;74.80;;;;;;5021258;28;20458;-73
2023/10/11 02:00:29;;;;;;;;;;;16.60;74.80;;;;;;5019211;28;19970;-73
2023/10/11 02:02:56;;;;;;;;;;;16.60;74.80;;;;;;5023549;28;20363;-72
2023/10/11 02:05:23;;;;;;;;;;;16.60;74.90;;;;;;5022765;28;20003;-73
2023/10/11 02:07:49;;;;;;;;;;;16.60;75.00;;;;;;5021519;28;19974;-73
2023/10/11 02:10:25;;;;;;;;;;;16.50;75.00;;;;;;5023133;28;19962;-73
2023/10/11 02:12:55;;;;;;;;;;;16.50;75.00;;;;;;5022045;28;20487;-73
2023/10/11 02:15:27;;;;;;;;;;;16.50;75.00;;;;;;5020842;28;20421;-73
2023/10/11 02:17:54;;;;;;;;;;;16.50;75.00;;;;;;5016546;28;20030;-73
2023/10/11 02:20:22;;;;;;;;;;;16.50;75.00;;;;;;5020953;28;19969;-73
2023/10/11 02:22:50;;;;;;;;;;;16.40;74.90;;;;;;5022306;28;19960;-73
2023/10/11 02:25:18;;;;;;;;;;;16.40;75.00;;;;;;5015132;28;19959;-73
2023/10/11 02:27:45;;;;;;;;;;;16.40;75.00;;;;;;5018267;28;19959;-72
2023/10/11 02:30:19;;;;;;;;;;;16.40;75.10;;;;;;5020630;28;20069;-73
2023/10/11 02:32:46;;;;;;;;;;;16.40;75.20;;;;;;5022486;28;19969;-73
2023/10/11 02:35:13;;;;;;;;;;;16.30;75.20;;;;;;5019998;28;19978;-73
2023/10/11 02:37:40;;;;;;;;;;;16.30;75.10;;;;;;5021152;28;20010;-73
2023/10/11 02:40:08;;;;;;;;;;;16.30;75.30;;;;;;5021654;28;19962;-73
2023/10/11 02:42:36;;;;;;;;;;;16.30;75.30;;;;;;5018634;28;19963;-73
2023/10/11 02:45:06;;;;;;;;;;;16.20;75.30;;;;;;5018997;28;20073;-72
2023/10/11 02:47:35;;;;;;;;;;;16.30;75.40;;;;;;5015761;28;20523;-73
2023/10/11 02:50:05;;;;;;;;;;;16.20;76.10;;;;;;5019650;28;20037;-73
2023/10/11 02:52:35;;;;;;;;;;;16.20;75.40;;;;;;5021749;28;19999;-73
2023/10/11 02:55:12;;;;;;;;;;;16.20;75.40;;;;;;5021446;28;20074;-73
2023/10/11 02:57:40;;;;;;;;;;;16.10;75.40;;;;;;5019849;28;19979;-73
2023/10/11 03:00:21;;;;;;;;;;;16.10;75.40;;;;;;5017882;28;20081;-72
2023/10/11 03:02:54;;;;;;;;;;;16.10;75.50;;;;;;5019654;28;19970;-73
2023/10/11 03:05:26;;;;;;;;;;;16.10;75.40;;;;;;5018935;28;19975;-73
2023/10/11 03:08:13;;;;;;;;;;;16.10;75.60;;;;;;5020122;28;20508;-73
2023/10/11 03:10:43;;;;;;;;;;;16.10;75.60;;;;;;5021182;28;20772;-72
2023/10/11 03:13:12;;;;;;;;;;;16.00;75.50;;;;;;5016194;28;19976;-73
2023/10/11 03:15:42;;;;;;;;;;;16.00;75.60;;;;;;5019261;28;20007;-73
2023/10/11 03:18:10;;;;;;;;;;;16.00;75.60;;;;;;5022362;28;20551;-73
2023/10/11 03:20:36;;;;;;;;;;;16.00;75.70;;;;;;5021616;28;20053;-73
2023/10/11 03:23:10;;;;;;;;;;;15.90;75.60;;;;;;5021933;28;19960;-73
2023/10/11 03:25:38;;;;;;;;;;;15.90;75.70;;;;;;5023024;28;20096;-73
2023/10/11 03:28:05;;;;;;;;;;;15.90;75.80;;;;;;5019322;28;19966;-73
2023/10/11 03:30:35;;;;;;;;;;;15.90;75.80;;;;;;5022702;28;20338;-72
2023/10/11 03:33:02;;;;;;;;;;;15.90;75.80;;;;;;5025142;28;21179;-73
2023/10/11 03:35:38;;;;;;;;;;;15.90;75.80;;;;;;5022999;28;19962;-73
2023/10/11 03:38:16;;;;;;;;;;;15.80;75.80;;;;;;5025947;28;19976;-72
2023/10/11 03:40:54;;;;;;;;;;;15.90;75.90;;;;;;5028867;28;20436;-72
2023/10/11 03:43:20;;;;;;;;;;;15.80;75.90;;;;;;5025348;28;20595;-73
2023/10/11 03:45:50;;;;;;;;;;;15.80;75.90;;;;;;5029810;28;20513;-73
2023/10/11 03:48:17;;;;;;;;;;;15.80;75.90;;;;;;5025564;28;20045;-73
2023/10/11 03:50:48;;;;;;;;;;;15.70;75.90;;;;;;5026915;28;20012;-73
2023/10/11 03:53:15;;;;;;;;;;;15.70;76.00;;;;;;5024903;28;20062;-73
2023/10/11 03:55:46;;;;;;;;;;;15.70;76.00;;;;;;5030110;28;19990;-73
2023/10/11 03:58:22;;;;;;;;;;;15.70;76.10;;;;;;5027079;28;20527;-73
2023/10/11 04:00:50;;;;;;;;;;;15.60;76.00;;;;;;5027365;28;19982;-73
2023/10/11 04:03:18;;;;;;;;;;;15.60;76.00;;;;;;5029459;28;19987;-73
2023/10/11 04:05:47;;;;;;;;;;;15.60;76.10;;;;;;5026360;28;19999;-73
2023/10/11 04:08:21;;;;;;;;;;;15.60;76.10;;;;;;5022913;28;19971;-73
2023/10/11 04:10:49;;;;;;;;;;;15.60;76.20;;;;;;5024189;28;19964;-73
2023/10/11 04:13:18;;;;;;;;;;;15.50;76.20;;;;;;5023679;28;19980;-73
2023/10/11 04:15:49;;;;;;;;;;;15.50;76.10;;;;;;5024846;28;19983;-73
2023/10/11 04:18:20;;;;;;;;;;;15.50;76.20;;;;;;5026955;28;20445;-73
2023/10/11 04:20:59;;;;;;;;;;;15.50;76.30;;;;;;5023772;28;20078;-73
2023/10/11 04:23:27;;;;;;;;;;;15.50;76.40;;;;;;5021583;28;20031;-73
2023/10/11 04:25:55;;;;;;;;;;;15.40;76.30;;;;;;5023984;28;19973;-73
2023/10/11 04:28:23;;;;;;;;;;;15.40;76.30;;;;;;5025855;28;19975;-73
2023/10/11 04:30:56;;;;;;;;;;;15.40;76.40;;;;;;5028726;28;19981;-73
2023/10/11 04:33:23;;;;;;;;;;;15.40;76.40;;;;;;5028186;28;20015;-73
2023/10/11 04:35:56;;;;;;;;;;;15.40;76.50;;;;;;5025231;28;19969;-73
2023/10/11 04:38:23;;;;;;;;;;;15.40;76.60;;;;;;5023633;28;20016;-73
2023/10/11 04:40:51;;;;;;;;;;;15.40;76.60;;;;;;5027378;28;20539;-73
2023/10/11 04:43:25;;;;;;;;;;;15.30;76.70;;;;;;5024230;28;19992;-73
2023/10/11 04:45:54;;;;;;;;;;;15.30;76.70;;;;;;5020399;28;20013;-73
2023/10/11 04:48:29;;;;;;;;;;;15.30;76.80;;;;;;5020171;28;20096;-73
2023/10/11 04:51:04;;;;;;;;;;;15.30;76.80;;;;;;5017667;28;19965;-73
2023/10/11 04:53:33;;;;;;;;;;;15.30;76.80;;;;;;5021653;28;19980;-73
2023/10/11 04:55:59;;;;;;;;;;;15.30;76.90;;;;;;5019220;28;19969;-73
2023/10/11 04:58:42;;;;;;;;;;;15.30;76.90;;;;;;5023088;28;19991;-73
2023/10/11 05:01:11;;;;;;;;;;;15.20;76.90;;;;;;5020596;28;19977;-72
2023/10/11 05:03:37;;;;;;;;;;;15.20;77.00;;;;;;5024903;28;19985;-73
2023/10/11 05:06:13;;;;;;;;;;;15.20;77.00;;;;;;5026041;28;19965;-73
2023/10/11 05:08:52;;;;;;;;;;;15.20;77.00;;;;;;5027735;28;19969;-73
2023/10/11 05:11:24;;;;;;;;;;;15.20;77.10;;;;;;5024349;28;19984;-73
2023/10/11 05:13:59;;;;;;;;;;;15.20;77.20;;;;;;5025708;28;20032;-73
2023/10/11 05:16:26;;;;;;;;;;;15.20;77.20;;;;;;5026747;28;19984;-72
2023/10/11 05:18:53;;;;;;;;;;;15.10;77.10;;;;;;5028944;28;20530;-73
2023/10/11 05:21:26;;;;;;;;;;;15.10;77.10;;;;;;5024942;28;19965;-73
2023/10/11 05:24:04;;;;;;;;;;;15.10;77.20;;;;;;5026399;28;19985;-73
2023/10/11 05:26:41;;;;;;;;;;;15.10;77.30;;;;;;5029075;28;19968;-73
2023/10/11 05:29:23;;;;;;;;;;;15.10;77.40;;;;;;5024933;28;20676;-73
2023/10/11 05:32:07;;;;;;;;;;;15.10;77.40;;;;;;5023769;28;19976;-72
2023/10/11 05:34:47;;;;;;;;;;;15.10;77.40;;;;;;5026447;28;20071;-73
2023/10/11 05:50:55;;;;;;;;;;;14.90;77.40;;;;;;5026453;28;19967;-67
2023/10/11 05:53:25;;;;;;;;;;;14.90;77.50;;;;;;5027290;28;20000;-67
2023/10/11 05:55:52;;;;;;;;;;;14.90;77.50;;;;;;5023800;28;19972;-66
2023/10/11 05:58:19;;;;;;;;;;;14.90;77.60;;;;;;5025638;28;19981;-66
2023/10/11 06:00:49;;;;;;;;;;;14.90;77.50;;;;;;5028941;28;20020;-67
2023/10/11 06:03:16;;;;;;;;;;;14.90;77.60;;;;;;5019781;28;19985;-66
2023/10/11 06:05:43;;;;;;;;;;;14.90;77.60;;;;;;5025068;28;20461;-66
2023/10/11 06:08:15;;;;;;;;;;;14.80;77.60;;;;;;5024959;28;19988;-66
2023/10/11 06:10:43;;;;;;;;;;;14.80;77.60;;;;;;5024325;28;20533;-66
2023/10/11 06:13:13;;;;;;;;;;;14.80;77.70;;;;;;5021835;28;20066;-67
2023/10/11 06:15:58;;;;;;;;;;;14.80;77.60;;;;;;5022002;28;19981;-66
2023/10/11 06:18:39;;;;;;;;;;;14.80;77.70;;;;;;5019593;28;19986;-66
2023/10/11 06:21:06;;;;;;;;;;;14.80;77.70;;;;;;5023603;28;19973;-74
2023/10/11 06:23:33;;;;;;;;;;;14.80;77.70;;;;;;5019545;28;20532;-73
2023/10/11 06:26:28;;;;;;;;;;;14.80;77.80;;;;;;5020307;28;19965;-73
2023/10/11 06:28:48;;;;;;;;;;;14.70;78.60;;;;;;5016477;28;19972;-73
2023/10/11 06:31:16;;;;;;;;;;;14.70;77.90;;;;;;5021066;28;19984;-73
2023/10/11 06:33:45;;;;;;;;;;;14.70;77.90;;;;;;5021661;28;19996;-73
2023/10/11 06:36:14;;;;;;;;;;;14.70;77.90;;;;;;5018616;28;20325;-73
2023/10/11 06:38:42;;;;;;;;;;;14.70;78.00;;;;;;5020018;28;20582;-73
2023/10/11 06:43:54;;;;;;;;;;;14.60;77.90;;;;;;5023540;28;19988;-73
2023/10/11 06:46:21;;;;;;;;;;;14.60;78.00;;;;;;5019921;28;19986;-73
2023/10/11 06:48:49;;;;;;;;;;;14.70;78.10;;;;;;5018288;28;19966;-73
2023/10/11 06:51:15;;;;;;;;;;;14.60;78.10;;;;;;5022321;28;19974;-72
2023/10/11 06:53:45;;;;;;;;;;;14.60;78.10;;;;;;5017315;28;20005;-73
2023/10/11 06:56:16;;;;;;;;;;;14.60;78.10;;;;;;5020519;28;19973;-73
2023/10/11 06:58:44;;;;;;;;;;;14.60;78.20;;;;;;5023553;28;19986;-73
2023/10/11 07:01:13;;;;;;;;;;;14.60;78.30;;;;;;5020830;28;20475;-73
2023/10/11 07:03:40;;;;;;;;;;;14.60;78.40;;;;;;5018727;28;20048;-73
2023/10/11 07:06:11;;;;;;;;;;;14.60;78.40;;;;;;5019139;28;19977;-73
2023/10/11 07:08:48;;;;;;;;;;;14.50;78.50;;;;;;5020110;28;19974;-73
2023/10/11 07:11:40;;;;;;;;;;;14.60;78.60;;;;;;5019374;28;20020;-73
2023/10/11 07:14:14;;;;;;;;;;;14.60;78.60;;;;;;5017480;28;20393;-73
2023/10/11 07:16:43;;;;;;;;;;;14.50;78.70;;;;;;5017882;28;20025;-73
2023/10/11 07:19:11;;;;;;;;;;;14.50;78.80;;;;;;5022137;28;20036;-73
2023/10/11 07:21:52;;;;;;;;;;;14.50;78.90;;;;;;5022070;28;21400;-73
2023/10/11 07:24:38;;;;;;;;;;;14.50;78.90;;;;;;5023526;28;20045;-73
2023/10/11 07:27:08;;;;;;;;;;;14.50;79.00;;;;;;5024173;28;19974;-74
2023/10/11 07:29:36;;;;;;;;;;;14.40;79.10;;;;;;5029563;28;19972;-73
2023/10/11 07:32:02;;;;;;;;;;;14.50;79.20;;;;;;5023768;28;20472;-73
2023/10/11 07:34:29;;;;;;;;;;;14.50;79.30;;;;;;5027383;28;20030;-73
2023/10/11 07:36:56;;;;;;;;;;;14.50;79.40;;;;;;5019758;28;20495;-74
2023/10/11 07:39:26;;;;;;;;;;;14.40;79.20;;;;;;5024019;28;19987;-74
2023/10/11 07:42:00;;;;;;;;;;;14.50;79.30;;;;;;5021847;28;19967;-74
2023/10/11 07:44:30;;;;;;;;;;;14.50;79.40;;;;;;5022170;28;19987;-73
2023/10/11 07:46:56;;;;;;;;;;;14.50;79.40;;;;;;5017181;28;19984;-73
2023/10/11 07:49:23;;;;;;;;;;;14.40;79.40;;;;;;5020810;28;19984;-74
2023/10/11 07:51:52;;;;;;;;;;;14.50;79.60;;;;;;5022957;28;20045;-73
2023/10/11 07:54:20;;;;;;;;;;;14.50;79.60;;;;;;5019348;28;20061;-74
2023/10/11 07:56:47;;;;;;;;;;;14.50;79.50;;;;;;5028710;28;19980;-73
2023/10/11 07:59:13;;;;;;;;;;;14.50;79.50;;;;;;5026608;28;20003;-72
2023/10/11 08:01:45;;;;;;;;;;;14.50;79.50;;;;;;5017892;28;19992;-74
2023/10/11 08:04:12;;;;;;;;;;;14.50;79.40;;;;;;5018465;28;20500;-73
2023/10/11 08:06:40;;;;;;;;;;;14.50;80.10;;;;;;5020344;28;19976;-74
2023/10/11 08:09:06;;;;;;;;;;;14.50;79.40;;;;;;5020177;28;19999;-74
2023/10/11 08:11:44;;;;;;;;;;;14.50;79.30;;;;;;5020664;28;19980;-73
2023/10/11 08:14:15;;;;;;;;;;;14.50;79.30;;;;;;5020409;28;19999;-74
2023/10/11 08:16:47;;;;;;;;;;;14.50;80.00;;;;;;5015712;28;20291;-74
2023/10/11 08:19:13;;;;;;;;;;;14.60;79.30;;;;;;5016497;28;20077;-74
2023/10/11 08:21:40;;;;;;;;;;;14.50;79.20;;;;;;5020201;28;19988;-73
2023/10/11 08:24:14;;;;;;;;;;;14.60;79.10;;;;;;5023168;28;19992;-73
2023/10/11 08:26:45;;;;;;;;;;;14.60;79.10;;;;;;5023052;28;19987;-73
2023/10/11 08:29:27;;;;;;;;;;;14.60;79.00;;;;;;5020727;28;20002;-74
2023/10/11 08:31:57;;;;;;;;;;;14.60;78.90;;;;;;5023140;28;19998;-73
2023/10/11 08:34:25;;;;;;;;;;;14.60;78.90;;;;;;5019669;28;19996;-73
2023/10/11 08:36:52;;;;;;;;;;;14.60;78.80;;;;;;5023564;28;19991;-73
2023/10/11 08:39:21;;;;;;;;;;;14.70;78.80;;;;;;5022161;28;20035;-73
2023/10/11 08:41:48;;;;;;;;;;;14.70;78.80;;;;;;5022677;28;19976;-73
2023/10/11 08:44:20;;;;;;;;;;;14.70;78.80;;;;;;5020759;28;19992;-73
2023/10/11 08:46:49;;;;;;;;;;;14.70;78.80;;;;;;5022065;28;20042;-73
2023/10/11 08:49:18;;;;;;;;;;;14.80;78.90;;;;;;5023182;28;20022;-73
2023/10/11 08:51:45;;;;;;;;;;;14.80;78.90;;;;;;5024027;28;20516;-73
2023/10/11 08:54:12;;;;;;;;;;;14.80;79.00;;;;;;5021280;28;20011;-73
2023/10/11 08:56:39;;;;;;;;;;;14.80;79.10;;;;;;5021063;28;20038;-73
2023/10/11 08:59:06;;;;;;;;;;;14.80;78.90;;;;;;5020060;28;19996;-73
2023/10/11 09:01:36;;;;;;;;;;;14.90;78.90;;;;;;5020023;28;19992;-73
2023/10/11 09:04:05;;;;;;;;;;;14.90;78.90;;;;;;5024939;28;19996;-73
2023/10/11 09:06:34;;;;;;;;;;;14.90;78.80;;;;;;5020114;28;20019;-73
2023/10/11 09:09:03;;;;;;;;;;;15.00;78.70;;;;;;5020835;28;19995;-73
2023/10/11 09:11:30;;;;;;;;;;;15.00;78.80;;;;;;5020712;28;19976;-73
2023/10/11 09:14:13;;;;;;;;;;;15.00;78.80;;;;;;5022061;28;19999;-74
2023/10/11 09:16:40;;;;;;;;;;;15.10;79.00;;;;;;5021278;28;19999;-73
2023/10/11 09:19:09;;;;;;;;;;;15.10;78.70;;;;;;5023380;28;19992;-73
2023/10/11 09:21:37;;;;;;;;;;;15.10;78.70;;;;;;5021356;28;19984;-74
2023/10/11 09:24:04;;;;;;;;;;;15.20;78.90;;;;;;5022381;28;20469;-73
2023/10/11 09:26:34;;;;;;;;;;;15.30;78.70;;;;;;5023721;28;20003;-73
2023/10/11 09:29:03;;;;;;;;;;;15.40;78.80;;;;;;5014074;28;19976;-73
2023/10/11 09:31:31;;;;;;;;;;;15.40;78.40;;;;;;5018372;28;20792;-73
2023/10/11 09:33:59;;;;;;;;;;;15.50;78.10;;;;;;5017247;28;20401;-73
2023/10/11 09:36:28;;;;;;;;;;;15.60;78.00;;;;;;5023196;28;20373;-72
2023/10/11 09:38:56;;;;;;;;;;;15.70;77.80;;;;;;5021697;28;20004;-72
2023/10/11 09:41:23;;;;;;;;;;;15.80;77.70;;;;;;5019822;28;19992;-72
2023/10/11 09:43:54;;;;;;;;;;;15.90;77.50;;;;;;5022393;28;19996;-72
2023/10/11 09:46:21;;;;;;;;;;;16.00;77.10;;;;;;5019539;28;20473;-73
2023/10/11 09:48:49;;;;;;;;;;;16.10;76.80;;;;;;5018952;28;19980;-72
2023/10/11 09:51:16;;;;;;;;;;;16.10;76.70;;;;;;5017646;28;20022;-72
2023/10/11 09:53:49;;;;;;;;;;;16.20;76.40;;;;;;5013491;28;19992;-76
2023/10/11 09:56:30;;;;;;;;;;;16.30;76.20;;;;;;5021208;28;19991;-75
2023/10/11 09:59:01;;;;;;;;;;;16.30;76.00;;;;;;5018311;28;20122;-75
2023/10/11 10:01:32;;;;;;;;;;;16.40;75.80;;;;;;5022648;28;19995;-74
2023/10/11 10:04:05;;;;;;;;;;;16.50;75.50;;;;;;5018932;28;19996;-76
2023/10/11 10:06:32;;;;;;;;;;;16.60;75.30;;;;;;5020374;28;19976;-76
2023/10/11 10:09:26;;;;;;;;;;;16.70;75.10;;;;;;5018028;28;20449;-76
2023/10/11 10:12:11;;;;;;;;;;;16.80;75.10;;;;;;5007561;28;19987;-75
2023/10/11 10:14:41;;;;;;;;;;;16.80;74.90;;;;;;5021537;28;19992;-74
2023/10/11 10:17:10;;;;;;;;;;;16.90;74.60;;;;;;5017313;28;19996;-75
2023/10/11 10:19:39;;;;;;;;;;;17.00;74.60;;;;;;5019747;28;20579;-75
2023/10/11 10:22:14;;;;;;;;;;;17.10;74.50;;;;;;5018750;28;20169;-75
2023/10/11 10:24:43;;;;;;;;;;;17.10;74.00;;;;;;5022216;28;19992;-73
2023/10/11 10:27:33;;;;;;;;;;;17.20;74.00;;;;;;5021046;28;19979;-74
2023/10/11 10:30:03;;;;;;;;;;;17.20;73.80;;;;;;5022269;28;20039;-72
2023/10/11 10:32:29;;;;;;;;;;;17.40;73.60;;;;;;5020080;28;19996;-73
2023/10/11 10:35:11;;;;;;;;;;;17.50;73.40;;;;;;5022175;28;20003;-73
2023/10/11 10:37:56;;;;;;;;;;;17.50;73.20;;;;;;5025334;28;19976;-75
2023/10/11 10:40:25;;;;;;;;;;;17.60;73.10;;;;;;5017414;28;20000;-75
2023/10/11 10:43:21;;;;;;;;;;;17.70;72.90;;;;;;5020051;28;19976;-75
2023/10/11 10:45:49;;;;;;;;;;;17.80;72.40;;;;;;5010897;28;19996;-74
2023/10/11 10:48:18;;;;;;;;;;;17.90;72.30;;;;;;5014659;28;20014;-74
2023/10/11 10:50:48;;;;;;;;;;;18.00;72.10;;;;;;5019907;28;19976;-74
2023/10/11 10:53:15;;;;;;;;;;;18.00;71.90;;;;;;5015400;28;20073;-74
2023/10/11 10:55:42;;;;;;;;;;;18.10;71.70;;;;;;5018985;28;20095;-75
2023/10/11 10:58:09;;;;;;;;;;;18.20;71.50;;;;;;5019280;28;20461;-73
2023/10/11 11:00:38;;;;;;;;;;;18.30;71.10;;;;;;5016319;28;20007;-74
2023/10/11 11:03:17;;;;;;;;;;;18.40;71.90;;;;;;5015414;28;19976;-74
2023/10/11 11:05:55;;;;;;;;;;;18.50;71.20;;;;;;5015138;28;19986;-73
2023/10/11 11:08:24;;;;;;;;;;;18.50;70.70;;;;;;5018680;28;19976;-73
2023/10/11 11:10:54;;;;;;;;;;;18.60;70.40;;;;;;5019227;28;21612;-73
2023/10/11 11:13:21;;;;;;;;;;;18.70;70.30;;;;;;5021318;28;20482;-74
2023/10/11 11:15:46;;;;;;;;;;;18.80;69.90;;;;;;5021859;28;19991;-73
2023/10/11 11:18:31;;;;;;;;;;;18.90;70.50;;;;;;5016497;28;20465;-74
2023/10/11 11:21:02;;;;;;;;;;;18.90;69.80;;;;;;5019448;28;20476;-74
2023/10/11 11:23:31;;;;;;;;;;;19.00;69.90;;;;;;5022376;28;19992;-74
2023/10/11 11:26:00;;;;;;;;;;;19.10;70.00;;;;;;5021707;28;19983;-74
2023/10/11 11:28:27;;;;;;;;;;;19.10;69.90;;;;;;5022197;28;20075;-73
2023/10/11 11:31:05;;;;;;;;;;;19.20;69.70;;;;;;5016915;28;19996;-73
2023/10/11 11:33:35;;;;;;;;;;;19.20;69.50;;;;;;5017178;28;19988;-74
2023/10/11 11:36:10;;;;;;;;;;;19.30;69.00;;;;;;5018363;28;19984;-75
2023/10/11 11:38:37;;;;;;;;;;;19.40;69.10;;;;;;5023268;28;19987;-75
2023/10/11 11:41:04;;;;;;;;;;;19.50;68.80;;;;;;5012728;28;20409;-73
2023/10/11 11:43:32;;;;;;;;;;;19.50;68.80;;;;;;5021063;28;19995;-66
2023/10/11 11:46:01;;;;;;;;;;;19.60;68.70;;;;;;5020073;28;20237;-66
2023/10/11 11:48:28;;;;;;;;;;;19.70;68.60;;;;;;5019683;28;20105;-67
2023/10/11 11:50:56;;;;;;;;;;;19.80;68.60;;;;;;5026795;28;19987;-66
2023/10/11 11:53:24;;;;;;;;;;;19.80;68.40;;;;;;5020880;28;19995;-66
2023/10/11 11:55:49;;;;;;;;;;;19.90;68.30;;;;;;5022303;28;20430;-66
2023/10/11 11:58:17;;;;;;;;;;;19.90;67.80;;;;;;5019125;28;19973;-66
2023/10/11 12:00:45;;;;;;;;;;;20.00;67.80;;;;;;5024096;28;19996;-66
2023/10/11 12:03:12;;;;;;;;;;;20.10;67.90;;;;;;5029280;28;20019;-66
2023/10/11 12:05:41;;;;;;;;;;;20.10;67.40;;;;;;5030107;28;20723;-65
2023/10/11 12:08:08;;;;;;;;;;;20.20;67.40;;;;;;5030075;28;20016;-66
2023/10/11 12:10:36;;;;;;;;;;;20.20;67.00;;;;;;5023050;28;19980;-66
2023/10/11 12:13:06;;;;;;;;;;;20.30;67.30;;;;;;5024318;28;20617;-65
2023/10/11 12:15:33;;;;;;;;;;;20.30;66.60;;;;;;5025909;28;19991;-66
2023/10/11 12:18:00;;;;;;;;;;;20.40;66.60;;;;;;5022972;28;19980;-66
2023/10/11 12:20:33;;;;;;;;;;;20.50;66.70;;;;;;5022979;28;19996;-66
2023/10/11 12:23:07;;;;;;;;;;;20.50;66.60;;;;;;5021973;28;20079;-74
2023/10/11 12:25:36;;;;;;;;;;;20.60;66.50;;;;;;5028128;28;20076;-73
2023/10/11 12:28:04;;;;;;;;;;;20.70;66.40;;;;;;5024386;28;20449;-74
2023/10/11 12:30:33;;;;;;;;;;;20.70;66.40;;;;;;5027468;28;19992;-74
2023/10/11 12:33:00;;;;;;;;;;;20.80;66.20;;;;;;5024082;28;19984;-74
2023/10/11 12:35:28;;;;;;;;;;;20.80;65.90;;;;;;5024746;28;20377;-74
2023/10/11 12:38:00;;;;;;;;;;;20.90;65.50;;;;;;5018416;28;20015;-74
2023/10/11 12:40:28;;;;;;;;;;;21.00;65.90;;;;;;5025250;28;22221;-74
2023/10/11 12:42:56;;;;;;;;;;;21.00;65.20;;;;;;5021364;28;20369;-76
2023/10/11 12:45:23;;;;;;;;;;;21.10;64.70;;;;;;5020005;28;19980;-75
2023/10/11 12:47:50;;;;;;;;;;;21.10;64.80;;;;;;5024495;28;19986;-75
2023/10/11 12:50:17;;;;;;;;;;;21.20;65.00;;;;;;5026178;28;20457;-74
2023/10/11 12:52:45;;;;;;;;;;;21.20;65.00;;;;;;5029498;28;20418;-76
2023/10/11 12:55:12;;;;;;;;;;;21.30;64.80;;;;;;5028225;28;20039;-76
2023/10/11 12:57:39;;;;;;;;;;;21.30;63.90;;;;;;5027326;28;19980;-75
2023/10/11 13:00:28;;;;;;;;;;;21.40;64.40;;;;;;5023754;28;20707;-75
2023/10/11 13:02:58;;;;;;;;;;;21.50;64.10;;;;;;5018246;28;20014;-77
2023/10/11 13:05:26;;;;;;;;;;;21.50;64.20;;;;;;5022116;28;19988;-76
2023/10/11 13:07:54;;;;;;;;;;;21.50;64.10;;;;;;5023491;28;19976;-76
2023/10/11 13:10:22;;;;;;;;;;;21.60;63.60;;;;;;5024032;28;20585;-77
2023/10/11 13:12:50;;;;;;;;;;;21.60;63.40;;;;;;5020851;28;20386;-76
2023/10/11 13:15:21;;;;;;;;;;;21.60;63.60;;;;;;5020309;28;20561;-77
2023/10/11 13:17:47;;;;;;;;;;;21.70;63.10;;;;;;5024945;28;19980;-76
2023/10/11 13:20:19;;;;;;;;;;;21.70;63.10;;;;;;5022331;28;19992;-75
2023/10/11 13:22:46;;;;;;;;;;;21.80;62.70;;;;;;5022090;28;20548;-76
2023/10/11 13:25:23;;;;;;;;;;;21.80;62.80;;;;;;5022631;28;19991;-75
2023/10/11 13:27:49;;;;;;;;;;;21.90;62.50;;;;;;5023992;28;20115;-75
2023/10/11 13:30:17;;;;;;;;;;;21.90;63.10;;;;;;5020389;28;19987;-75
2023/10/11 13:32:49;;;;;;;;;;;21.90;62.60;;;;;;5023719;28;19976;-75
2023/10/11 13:35:15;;;;;;;;;;;22.00;62.70;;;;;;5019747;28;20003;-75
2023/10/11 13:37:46;;;;;;;;;;;22.00;63.20;;;;;;5023574;28;20724;-75
2023/10/11 13:40:14;;;;;;;;;;;22.00;62.70;;;;;;5026230;28;19998;-75
2023/10/11 13:42:42;;;;;;;;;;;22.10;63.60;;;;;;5023289;28;20024;-75
2023/10/11 13:45:10;;;;;;;;;;;22.10;62.70;;;;;;5022993;28;20050;-75
2023/10/11 13:47:38;;;;;;;;;;;22.20;61.80;;;;;;5020626;28;20966;-75
2023/10/11 13:50:08;;;;;;;;;;;22.20;62.30;;;;;;5024363;28;19980;-75
2023/10/11 13:52:36;;;;;;;;;;;22.30;61.90;;;;;;5024087;28;19980;-76
2023/10/11 13:55:10;;;;;;;;;;;22.30;61.70;;;;;;5016493;28;20039;-75
2023/10/11 13:57:37;;;;;;;;;;;22.30;61.60;;;;;;5023457;28;20467;-76
2023/10/11 14:01:00;;;;;;;;;;;22.40;61.90;;;;;;5022272;28;20083;-75
2023/10/11 14:03:12;;;;;;;;;;;22.50;61.90;;;;;;5025616;28;19995;-76
2023/10/11 14:05:38;;;;;;;;;;;22.50;61.80;;;;;;5020671;28;20067;-75
2023/10/11 14:08:19;;;;;;;;;;;22.50;60.60;;;;;;5026618;28;19991;-68
2023/10/11 14:10:46;;;;;;;;;;;22.60;61.50;;;;;;5026232;28;19975;-68
2023/10/11 14:13:12;;;;;;;;;;;22.60;60.70;;;;;;5028343;28;20631;-68
2023/10/11 14:15:39;;;;;;;;;;;22.60;60.80;;;;;;5027629;28;20492;-69
2023/10/11 14:18:14;;;;;;;;;;;22.60;60.20;;;;;;5029146;28;19991;-68
2023/10/11 14:20:45;;;;;;;;;;;22.70;60.70;;;;;;5024118;28;19991;-69
2023/10/11 14:23:15;;;;;;;;;;;22.70;60.80;;;;;;5024017;28;19976;-68
2023/10/11 14:25:42;;;;;;;;;;;22.80;60.20;;;;;;5030357;28;20441;-68
2023/10/11 14:28:08;;;;;;;;;;;22.80;60.50;;;;;;5025511;28;20027;-69
2023/10/11 14:30:36;;;;;;;;;;;22.90;60.30;;;;;;5022385;28;19993;-68
2023/10/11 14:33:08;;;;;;;;;;;22.90;59.40;;;;;;5021970;28;19976;-68
2023/10/11 14:35:37;;;;;;;;;;;22.90;60.00;;;;;;5023556;28;20000;-68
2023/10/11 14:38:04;;;;;;;;;;;22.90;59.90;;;;;;5022650;28;20023;-68
2023/10/11 14:40:31;;;;;;;;;;;22.90;59.80;;;;;;5022329;28;19992;-68
2023/10/11 14:42:57;;;;;;;;;;;22.90;59.90;;;;;;5020599;28;20003;-67
2023/10/11 14:45:24;;;;;;;;;;;22.90;59.30;;;;;;5019520;28;20541;-68
2023/10/11 14:47:50;;;;;;;;;;;22.90;59.60;;;;;;5020132;28;19976;-76
2023/10/11 14:50:22;;;;;;;;;;;22.90;59.10;;;;;;5018782;28;20454;-76